sensor_id;sensor_type;location;lat;lon;timestamp;pressure;altitude;pressure_sealevel;temperature;humidity
44839;BME280;30576;42.098;24.876;2023-03-04T00:00:23;99918.41;;;3.46;84.19
44839;BME280;30576;42.098;24.876;2023-03-04T00:02:48;99917.09;;;3.73;84.03
44839;BME280;30576;42.098;24.876;2023-03-04T00:05:14;99903.47;;;3.91;83.60
44839;BME280;30576;42.098;24.876;2023-03-04T00:07:39;99906.28;;;4.05;83.52
44839;BME280;30576;42.098;24.876;2023-03-04T00:10:04;99901.34;;;4.25;82.96
44839;BME280;30576;42.098;24.876;2023-03-04T00:12:30;99896.16;;;4.28;82.37
44839;BME280;30576;42.098;24.876;2023-03-04T00:14:55;99889.97;;;4.21;82.46
44839;BME280;30576;42.098;24.876;2023-03-04T00:17:21;99896.25;;;4.34;82.41
44839;BME280;30576;42.098;24.876;2023-03-04T00:19:46;99882.00;;;4.12;83.43
44839;BME280;30576;42.098;24.876;2023-03-04T00:22:11;99885.69;;;4.26;82.71
44839;BME280;30576;42.098;24.876;2023-03-04T00:24:37;99881.50;;;4.39;82.68
44839;BME280;30576;42.098;24.876;2023-03-04T00:27:02;99874.47;;;4.35;82.51
44839;BME280;30576;42.098;24.876;2023-03-04T00:29:27;99880.59;;;4.34;82.53
44839;BME280;30576;42.098;24.876;2023-03-04T00:31:53;99891.84;;;4.30;82.60
44839;BME280;30576;42.098;24.876;2023-03-04T00:34:18;99886.59;;;4.28;82.84
44839;BME280;30576;42.098;24.876;2023-03-04T00:36:44;99886.88;;;4.52;82.17
44839;BME280;30576;42.098;24.876;2023-03-04T00:39:10;99886.97;;;4.58;81.86
44839;BME280;30576;42.098;24.876;2023-03-04T00:41:36;99887.16;;;4.73;81.31
44839;BME280;30576;42.098;24.876;2023-03-04T00:44:01;99888.81;;;4.65;81.23
44839;BME280;30576;42.098;24.876;2023-03-04T00:46:26;99895.66;;;4.57;81.48
44839;BME280;30576;42.098;24.876;2023-03-04T00:48:52;99896.41;;;4.46;82.11
44839;BME280;30576;42.098;24.876;2023-03-04T00:51:17;99891.28;;;4.54;82.20
44839;BME280;30576;42.098;24.876;2023-03-04T00:53:44;99898.16;;;4.49;82.17
44839;BME280;30576;42.098;24.876;2023-03-04T00:56:09;99896.47;;;4.51;82.21
44839;BME280;30576;42.098;24.876;2023-03-04T00:58:34;99897.34;;;4.53;81.97
44839;BME280;30576;42.098;24.876;2023-03-04T01:01:00;99888.44;;;4.36;82.62
44839;BME280;30576;42.098;24.876;2023-03-04T01:03:25;99892.84;;;4.43;82.55
44839;BME280;30576;42.098;24.876;2023-03-04T01:05:51;99892.16;;;4.56;81.90
44839;BME280;30576;42.098;24.876;2023-03-04T01:08:16;99895.53;;;4.47;79.46
44839;BME280;30576;42.098;24.876;2023-03-04T01:10:41;99891.50;;;4.07;79.76
44839;BME280;30576;42.098;24.876;2023-03-04T01:13:06;99896.97;;;3.67;80.57
44839;BME280;30576;42.098;24.876;2023-03-04T01:15:32;99885.16;;;3.89;80.83
44839;BME280;30576;42.098;24.876;2023-03-04T01:17:57;99877.53;;;4.02;80.63
44839;BME280;30576;42.098;24.876;2023-03-04T01:20:23;99874.06;;;4.06;80.64
44839;BME280;30576;42.098;24.876;2023-03-04T01:22:48;99882.75;;;4.02;80.47
44839;BME280;30576;42.098;24.876;2023-03-04T01:25:13;99878.31;;;3.98;80.96
44839;BME280;30576;42.098;24.876;2023-03-04T01:27:39;99868.78;;;4.01;80.63
44839;BME280;30576;42.098;24.876;2023-03-04T01:30:04;99878.44;;;4.05;80.62
44839;BME280;30576;42.098;24.876;2023-03-04T01:32:30;99878.50;;;4.10;80.97
44839;BME280;30576;42.098;24.876;2023-03-04T01:34:55;99878.66;;;4.22;80.49
44839;BME280;30576;42.098;24.876;2023-03-04T01:37:20;99878.66;;;4.22;80.85
44839;BME280;30576;42.098;24.876;2023-03-04T01:39:46;99877.88;;;4.28;80.62
44839;BME280;30576;42.098;24.876;2023-03-04T01:42:16;99880.50;;;4.29;80.62
44839;BME280;30576;42.098;24.876;2023-03-04T01:44:42;99873.56;;;4.30;80.45
44839;BME280;30576;42.098;24.876;2023-03-04T01:47:08;99875.34;;;4.34;80.91
44839;BME280;30576;42.098;24.876;2023-03-04T01:49:33;99873.47;;;4.24;81.81
44839;BME280;30576;42.098;24.876;2023-03-04T01:51:58;99870.06;;;4.28;81.57
44839;BME280;30576;42.098;24.876;2023-03-04T01:54:24;99868.28;;;4.27;81.98
44839;BME280;30576;42.098;24.876;2023-03-04T01:56:50;99857.94;;;4.35;81.99
44839;BME280;30576;42.098;24.876;2023-03-04T01:59:17;99863.09;;;4.30;82.10
44839;BME280;30576;42.098;24.876;2023-03-04T02:01:47;99859.59;;;4.28;82.21
44839;BME280;30576;42.098;24.876;2023-03-04T02:04:13;99855.31;;;4.33;82.48
44839;BME280;30576;42.098;24.876;2023-03-04T02:06:40;99864.06;;;4.38;82.45
44839;BME280;30576;42.098;24.876;2023-03-04T02:09:06;99859.84;;;4.46;82.70
44839;BME280;30576;42.098;24.876;2023-03-04T02:11:32;99860.00;;;4.59;82.72
44839;BME280;30576;42.098;24.876;2023-03-04T02:13:58;99852.22;;;4.65;82.55
44839;BME280;30576;42.098;24.876;2023-03-04T02:16:23;99852.19;;;4.62;82.79
44839;BME280;30576;42.098;24.876;2023-03-04T02:18:48;99851.22;;;4.55;83.50
44839;BME280;30576;42.098;24.876;2023-03-04T02:26:19;99848.84;;;4.77;83.68
44839;BME280;30576;42.098;24.876;2023-03-04T02:28:46;99845.41;;;4.81;83.32
44839;BME280;30576;42.098;24.876;2023-03-04T02:31:22;99827.97;;;4.81;83.43
44839;BME280;30576;42.098;24.876;2023-03-04T02:33:49;99839.31;;;4.80;83.69
44839;BME280;30576;42.098;24.876;2023-03-04T02:36:14;99839.25;;;4.74;83.88
44839;BME280;30576;42.098;24.876;2023-03-04T02:38:39;99827.97;;;4.81;83.82
44839;BME280;30576;42.098;24.876;2023-03-04T02:41:05;99829.25;;;4.39;85.05
44839;BME280;30576;42.098;24.876;2023-03-04T02:43:30;99825.19;;;4.63;85.06
44839;BME280;30576;42.098;24.876;2023-03-04T02:45:55;99822.28;;;4.38;85.26
44839;BME280;30576;42.098;24.876;2023-03-04T02:48:21;99826.75;;;4.47;85.79
44839;BME280;30576;42.098;24.876;2023-03-04T02:50:48;99817.13;;;4.44;85.75
44839;BME280;30576;42.098;24.876;2023-03-04T02:53:15;99823.44;;;4.60;85.76
44839;BME280;30576;42.098;24.876;2023-03-04T02:55:40;99820.91;;;4.68;84.98
44839;BME280;30576;42.098;24.876;2023-03-04T02:58:09;99827.88;;;4.72;85.40
44839;BME280;30576;42.098;24.876;2023-03-04T03:00:35;99826.22;;;4.76;85.37
44839;BME280;30576;42.098;24.876;2023-03-04T03:03:00;99829.81;;;4.87;84.80
44839;BME280;30576;42.098;24.876;2023-03-04T03:05:26;99835.16;;;5.01;83.18
44839;BME280;30576;42.098;24.876;2023-03-04T03:07:52;99835.88;;;4.86;83.37
44839;BME280;30576;42.098;24.876;2023-03-04T03:10:18;99848.00;;;4.79;84.02
44839;BME280;30576;42.098;24.876;2023-03-04T03:12:44;99844.28;;;4.56;84.52
44839;BME280;30576;42.098;24.876;2023-03-04T03:15:09;99846.97;;;4.63;84.43
44839;BME280;30576;42.098;24.876;2023-03-04T03:17:35;99851.47;;;4.78;83.83
44839;BME280;30576;42.098;24.876;2023-03-04T03:20:00;99850.56;;;4.73;83.06
44839;BME280;30576;42.098;24.876;2023-03-04T03:22:25;99855.69;;;4.65;82.82
44839;BME280;30576;42.098;24.876;2023-03-04T03:24:50;99854.78;;;4.60;82.60
44839;BME280;30576;42.098;24.876;2023-03-04T03:27:16;99857.28;;;4.51;82.67
44839;BME280;30576;42.098;24.876;2023-03-04T03:29:41;99857.25;;;4.50;82.28
44839;BME280;30576;42.098;24.876;2023-03-04T03:32:06;99847.69;;;4.50;82.65
44839;BME280;30576;42.098;24.876;2023-03-04T03:34:32;99846.81;;;4.50;82.60
44839;BME280;30576;42.098;24.876;2023-03-04T03:36:58;99857.38;;;4.59;82.73
44839;BME280;30576;42.098;24.876;2023-03-04T03:39:23;99856.38;;;4.49;83.21
44839;BME280;30576;42.098;24.876;2023-03-04T03:41:49;99852.94;;;4.52;82.99
44839;BME280;30576;42.098;24.876;2023-03-04T03:44:14;99852.53;;;4.21;84.53
44839;BME280;30576;42.098;24.876;2023-03-04T03:46:39;99852.50;;;4.19;85.37
44839;BME280;30576;42.098;24.876;2023-03-04T03:49:05;99852.56;;;4.22;85.15
44839;BME280;30576;42.098;24.876;2023-03-04T03:51:30;99854.63;;;4.46;85.07
44839;BME280;30576;42.098;24.876;2023-03-04T03:53:55;99852.41;;;4.11;83.35
44839;BME280;30576;42.098;24.876;2023-03-04T03:56:20;99852.31;;;4.05;84.50
44839;BME280;30576;42.098;24.876;2023-03-04T03:58:46;99852.38;;;4.10;84.69
44839;BME280;30576;42.098;24.876;2023-03-04T04:01:11;99851.66;;;4.19;84.17
44839;BME280;30576;42.098;24.876;2023-03-04T04:03:36;99850.00;;;4.27;83.63
44839;BME280;30576;42.098;24.876;2023-03-04T04:06:02;99849.84;;;4.15;83.02
44839;BME280;30576;42.098;24.876;2023-03-04T04:08:27;99852.31;;;4.05;83.10
44839;BME280;30576;42.098;24.876;2023-03-04T04:10:52;99860.03;;;3.41;84.64
44839;BME280;30576;42.098;24.876;2023-03-04T04:13:18;99872.44;;;3.54;85.09
44839;BME280;30576;42.098;24.876;2023-03-04T04:15:43;99862.78;;;3.49;84.87
44839;BME280;30576;42.098;24.876;2023-03-04T04:18:08;99858.69;;;3.65;85.25
44839;BME280;30576;42.098;24.876;2023-03-04T04:20:33;99856.38;;;3.83;84.90
44839;BME280;30576;42.098;24.876;2023-03-04T04:22:59;99859.97;;;3.93;83.99
44839;BME280;30576;42.098;24.876;2023-03-04T04:25:24;99854.81;;;3.96;83.09
44839;BME280;30576;42.098;24.876;2023-03-04T04:27:50;99862.69;;;4.01;83.01
44839;BME280;30576;42.098;24.876;2023-03-04T04:30:15;99858.56;;;4.17;82.31
44839;BME280;30576;42.098;24.876;2023-03-04T04:32:40;99859.34;;;4.08;82.15
44839;BME280;30576;42.098;24.876;2023-03-04T04:35:06;99859.31;;;4.06;82.59
44839;BME280;30576;42.098;24.876;2023-03-04T04:37:31;99864.50;;;4.05;81.88
44839;BME280;30576;42.098;24.876;2023-03-04T04:39:57;99868.00;;;3.49;83.12
44839;BME280;30576;42.098;24.876;2023-03-04T04:42:22;99876.84;;;3.57;83.36
44839;BME280;30576;42.098;24.876;2023-03-04T04:44:47;99878.88;;;3.76;83.15
44839;BME280;30576;42.098;24.876;2023-03-04T04:47:13;99879.69;;;3.72;83.75
44839;BME280;30576;42.098;24.876;2023-03-04T04:49:38;99888.53;;;3.82;82.38
44839;BME280;30576;42.098;24.876;2023-03-04T04:52:04;99885.72;;;3.70;82.48
44839;BME280;30576;42.098;24.876;2023-03-04T04:54:29;99885.88;;;3.79;82.54
44839;BME280;30576;42.098;24.876;2023-03-04T04:56:54;99882.25;;;3.69;82.18
44839;BME280;30576;42.098;24.876;2023-03-04T04:59:20;99892.31;;;3.46;82.87
44839;BME280;30576;42.098;24.876;2023-03-04T05:01:45;99895.53;;;3.31;83.60
44839;BME280;30576;42.098;24.876;2023-03-04T05:04:10;99891.00;;;3.22;84.23
44839;BME280;30576;42.098;24.876;2023-03-04T05:06:36;99895.44;;;2.81;85.20
44839;BME280;30576;42.098;24.876;2023-03-04T05:09:01;99887.66;;;2.82;85.77
44839;BME280;30576;42.098;24.876;2023-03-04T05:11:26;99891.00;;;2.74;86.98
44839;BME280;30576;42.098;24.876;2023-03-04T05:13:52;99894.03;;;2.97;86.65
44839;BME280;30576;42.098;24.876;2023-03-04T05:16:17;99896.78;;;3.04;86.09
44839;BME280;30576;42.098;24.876;2023-03-04T05:18:43;99895.06;;;3.07;86.03
44839;BME280;30576;42.098;24.876;2023-03-04T05:21:09;99903.94;;;3.16;85.71
44839;BME280;30576;42.098;24.876;2023-03-04T05:23:35;99902.47;;;3.31;85.80
44839;BME280;30576;42.098;24.876;2023-03-04T05:26:02;99900.69;;;3.28;85.17
44839;BME280;30576;42.098;24.876;2023-03-04T05:28:27;99895.53;;;3.31;85.48
44839;BME280;30576;42.098;24.876;2023-03-04T05:30:53;99893.03;;;3.37;86.09
44839;BME280;30576;42.098;24.876;2023-03-04T05:33:18;99896.56;;;3.41;85.75
44839;BME280;30576;42.098;24.876;2023-03-04T05:35:44;99899.19;;;3.43;85.86
44839;BME280;30576;42.098;24.876;2023-03-04T05:38:10;99905.50;;;3.55;85.64
44839;BME280;30576;42.098;24.876;2023-03-04T05:40:36;99905.88;;;3.79;85.52
44839;BME280;30576;42.098;24.876;2023-03-04T05:43:02;99910.97;;;3.71;85.66
44839;BME280;30576;42.098;24.876;2023-03-04T05:45:27;99908.72;;;3.94;85.19
44839;BME280;30576;42.098;24.876;2023-03-04T05:47:53;99920.13;;;4.01;84.71
44839;BME280;30576;42.098;24.876;2023-03-04T05:50:18;99914.97;;;4.05;84.81
44839;BME280;30576;42.098;24.876;2023-03-04T05:52:44;99898.59;;;4.14;85.46
44839;BME280;30576;42.098;24.876;2023-03-04T05:55:09;99908.38;;;4.30;84.15
44839;BME280;30576;42.098;24.876;2023-03-04T05:57:34;99917.94;;;4.28;84.47
44839;BME280;30576;42.098;24.876;2023-03-04T06:00:00;99905.75;;;4.30;84.39
44839;BME280;30576;42.098;24.876;2023-03-04T06:02:25;99901.31;;;4.23;84.35
44839;BME280;30576;42.098;24.876;2023-03-04T06:04:51;99906.50;;;4.20;85.22
44839;BME280;30576;42.098;24.876;2023-03-04T06:07:16;99914.56;;;4.36;85.21
44839;BME280;30576;42.098;24.876;2023-03-04T06:09:42;99914.53;;;4.34;84.66
44839;BME280;30576;42.098;24.876;2023-03-04T06:12:09;99917.22;;;4.40;84.83
44839;BME280;30576;42.098;24.876;2023-03-04T06:14:34;99919.06;;;4.49;85.36
44839;BME280;30576;42.098;24.876;2023-03-04T06:17:00;99912.34;;;4.66;84.56
44839;BME280;30576;42.098;24.876;2023-03-04T06:19:25;99914.91;;;4.63;84.67
44839;BME280;30576;42.098;24.876;2023-03-04T06:21:50;99917.56;;;4.65;84.36
44839;BME280;30576;42.098;24.876;2023-03-04T06:24:15;99911.50;;;4.71;84.90
44839;BME280;30576;42.098;24.876;2023-03-04T06:26:41;99914.19;;;4.77;84.39
44839;BME280;30576;42.098;24.876;2023-03-04T06:29:06;99921.22;;;4.81;84.12
44839;BME280;30576;42.098;24.876;2023-03-04T06:31:31;99925.47;;;4.71;83.80
44839;BME280;30576;42.098;24.876;2023-03-04T06:33:57;99926.09;;;4.53;83.62
44839;BME280;30576;42.098;24.876;2023-03-04T06:36:22;99927.88;;;4.54;84.15
44839;BME280;30576;42.098;24.876;2023-03-04T06:38:47;99928.84;;;4.64;82.87
44839;BME280;30576;42.098;24.876;2023-03-04T06:41:12;99931.41;;;4.61;83.38
44839;BME280;30576;42.098;24.876;2023-03-04T06:43:38;99930.78;;;4.79;83.69
44839;BME280;30576;42.098;24.876;2023-03-04T06:46:04;99941.25;;;4.80;83.84
44839;BME280;30576;42.098;24.876;2023-03-04T06:48:30;99942.19;;;4.87;83.62
44839;BME280;30576;42.098;24.876;2023-03-04T06:50:55;99941.38;;;4.90;83.78
44839;BME280;30576;42.098;24.876;2023-03-04T06:53:21;99944.22;;;5.11;83.09
44839;BME280;30576;42.098;24.876;2023-03-04T06:55:46;99941.00;;;4.60;85.47
44839;BME280;30576;42.098;24.876;2023-03-04T06:58:12;99936.16;;;4.91;85.43
44839;BME280;30576;42.098;24.876;2023-03-04T07:00:37;99941.41;;;4.91;85.42
44839;BME280;30576;42.098;24.876;2023-03-04T07:03:03;99943.28;;;5.06;85.62
44839;BME280;30576;42.098;24.876;2023-03-04T07:05:28;99943.31;;;5.09;85.67
44839;BME280;30576;42.098;24.876;2023-03-04T07:07:53;99944.41;;;5.27;86.41
44839;BME280;30576;42.098;24.876;2023-03-04T07:10:19;99942.03;;;5.54;85.53
44839;BME280;30576;42.098;24.876;2023-03-04T07:12:44;99938.66;;;5.66;85.01
44839;BME280;30576;42.098;24.876;2023-03-04T07:15:09;99949.09;;;5.62;85.26
44839;BME280;30576;42.098;24.876;2023-03-04T07:17:35;99942.16;;;5.70;85.58
44839;BME280;30576;42.098;24.876;2023-03-04T07:20:00;99940.75;;;6.03;85.18
44839;BME280;30576;42.098;24.876;2023-03-04T07:22:26;99941.69;;;6.14;85.11
44839;BME280;30576;42.098;24.876;2023-03-04T07:24:51;99935.63;;;6.21;84.87
44839;BME280;30576;42.098;24.876;2023-03-04T07:27:16;99940.06;;;6.38;83.36
44839;BME280;30576;42.098;24.876;2023-03-04T07:29:42;99940.09;;;6.39;82.55
44839;BME280;30576;42.098;24.876;2023-03-04T07:32:07;99938.31;;;6.29;83.19
44839;BME280;30576;42.098;24.876;2023-03-04T07:34:33;99933.63;;;5.89;85.10
44839;BME280;30576;42.098;24.876;2023-03-04T07:36:58;99940.56;;;5.86;84.84
44839;BME280;30576;42.098;24.876;2023-03-04T07:39:23;99934.47;;;5.88;85.54
44839;BME280;30576;42.098;24.876;2023-03-04T07:41:49;99932.03;;;6.08;86.17
44839;BME280;30576;42.098;24.876;2023-03-04T07:44:14;99933.06;;;6.29;84.46
44839;BME280;30576;42.098;24.876;2023-03-04T07:46:39;99922.53;;;6.20;84.83
44839;BME280;30576;42.098;24.876;2023-03-04T07:49:05;99926.09;;;6.33;84.57
44839;BME280;30576;42.098;24.876;2023-03-04T07:51:30;99920.13;;;6.58;83.28
44839;BME280;30576;42.098;24.876;2023-03-04T07:53:56;99922.78;;;6.66;83.05
44839;BME280;30576;42.098;24.876;2023-03-04T07:56:24;99919.25;;;6.67;82.63
44839;BME280;30576;42.098;24.876;2023-03-04T07:58:51;99921.03;;;6.67;81.89
44839;BME280;30576;42.098;24.876;2023-03-04T08:01:25;99924.56;;;6.82;82.32
44839;BME280;30576;42.098;24.876;2023-03-04T08:03:50;99922.81;;;6.72;81.90
44839;BME280;30576;42.098;24.876;2023-03-04T08:06:16;99918.47;;;6.85;81.86
44839;BME280;30576;42.098;24.876;2023-03-04T08:08:43;99915.03;;;6.95;81.62
44839;BME280;30576;42.098;24.876;2023-03-04T08:11:09;99919.41;;;7.06;81.28
44839;BME280;30576;42.098;24.876;2023-03-04T08:13:35;99915.94;;;7.10;81.97
44839;BME280;30576;42.098;24.876;2023-03-04T08:16:00;99915.97;;;7.22;81.79
44839;BME280;30576;42.098;24.876;2023-03-04T08:18:26;99914.22;;;7.32;80.11
44839;BME280;30576;42.098;24.876;2023-03-04T08:20:51;99921.22;;;7.36;80.76
44839;BME280;30576;42.098;24.876;2023-03-04T08:23:17;99929.13;;;7.39;80.82
44839;BME280;30576;42.098;24.876;2023-03-04T08:25:43;99929.13;;;7.47;81.37
44839;BME280;30576;42.098;24.876;2023-03-04T08:28:09;99923.88;;;7.42;81.64
44839;BME280;30576;42.098;24.876;2023-03-04T08:30:36;99920.38;;;7.48;81.85
44839;BME280;30576;42.098;24.876;2023-03-04T08:33:02;99925.66;;;7.79;80.71
44839;BME280;30576;42.098;24.876;2023-03-04T08:35:27;99929.97;;;7.41;82.18
44839;BME280;30576;42.098;24.876;2023-03-04T08:37:53;99917.72;;;7.31;84.24
44839;BME280;30576;42.098;24.876;2023-03-04T08:40:18;99920.41;;;7.71;82.52
44839;BME280;30576;42.098;24.876;2023-03-04T08:42:43;99918.66;;;7.76;82.87
44839;BME280;30576;42.098;24.876;2023-03-04T08:45:09;99917.75;;;7.40;83.54
44839;BME280;30576;42.098;24.876;2023-03-04T08:47:34;99917.78;;;7.65;83.84
44839;BME280;30576;42.098;24.876;2023-03-04T08:50:00;99909.91;;;7.56;82.95
44839;BME280;30576;42.098;24.876;2023-03-04T08:52:25;99906.38;;;7.46;83.93
44839;BME280;30576;42.098;24.876;2023-03-04T08:54:52;99907.25;;;7.97;82.39
44839;BME280;30576;42.098;24.876;2023-03-04T08:57:17;99898.47;;;8.01;80.77
44839;BME280;30576;42.098;24.876;2023-03-04T08:59:43;99902.03;;;7.77;81.50
44839;BME280;30576;42.098;24.876;2023-03-04T09:02:08;99909.91;;;7.79;83.19
44839;BME280;30576;42.098;24.876;2023-03-04T09:04:33;99903.72;;;8.04;81.96
44839;BME280;30576;42.098;24.876;2023-03-04T09:06:59;99908.09;;;8.12;80.86
44839;BME280;30576;42.098;24.876;2023-03-04T09:09:24;99894.13;;;8.08;80.43
44839;BME280;30576;42.098;24.876;2023-03-04T09:11:49;99902.84;;;8.19;80.88
44839;BME280;30576;42.098;24.876;2023-03-04T09:14:15;99896.69;;;8.34;80.59
44839;BME280;30576;42.098;24.876;2023-03-04T09:16:41;99895.69;;;8.69;78.87
44839;BME280;30576;42.098;24.876;2023-03-04T09:19:08;99906.16;;;8.86;79.86
44839;BME280;30576;42.098;24.876;2023-03-04T09:21:36;99902.47;;;9.18;78.03
44839;BME280;30576;42.098;24.876;2023-03-04T09:24:01;99898.00;;;9.32;77.82
44839;BME280;30576;42.098;24.876;2023-03-04T09:26:28;99887.63;;;9.09;77.25
44839;BME280;30576;42.098;24.876;2023-03-04T09:28:54;99889.38;;;9.12;77.94
44839;BME280;30576;42.098;24.876;2023-03-04T09:31:20;99877.69;;;9.52;77.08
44839;BME280;30576;42.098;24.876;2023-03-04T09:33:45;99877.09;;;9.06;77.24
44839;BME280;30576;42.098;24.876;2023-03-04T09:36:11;99866.41;;;9.32;77.68
44839;BME280;30576;42.098;24.876;2023-03-04T09:38:38;99867.13;;;9.56;76.93
44839;BME280;30576;42.098;24.876;2023-03-04T09:41:07;99866.97;;;9.73;77.83
44839;BME280;30576;42.098;24.876;2023-03-04T09:43:33;99861.66;;;9.78;76.59
44839;BME280;30576;42.098;24.876;2023-03-04T09:46:00;99853.63;;;9.93;74.88
44839;BME280;30576;42.098;24.876;2023-03-04T09:48:29;99861.34;;;10.13;73.93
44839;BME280;30576;42.098;24.876;2023-03-04T09:53:34;99860.06;;;10.50;72.37
44839;BME280;30576;42.098;24.876;2023-03-04T09:56:05;99863.56;;;10.52;72.35
44839;BME280;30576;42.098;24.876;2023-03-04T10:04:11;99862.66;;;10.51;72.45
44839;BME280;30576;42.098;24.876;2023-03-04T10:06:38;99853.22;;;10.32;71.94
44839;BME280;30576;42.098;24.876;2023-03-04T10:11:40;99843.03;;;10.75;71.63
44839;BME280;30576;42.098;24.876;2023-03-04T10:16:44;99846.06;;;11.10;69.25
44839;BME280;30576;42.098;24.876;2023-03-04T10:21:38;99829.88;;;11.33;68.14
44839;BME280;30576;42.098;24.876;2023-03-04T10:24:10;99835.63;;;11.01;69.40
44839;BME280;30576;42.098;24.876;2023-03-04T10:26:36;99825.84;;;11.07;68.06
44839;BME280;30576;42.098;24.876;2023-03-04T10:29:03;99827.47;;;11.18;68.93
44839;BME280;30576;42.098;24.876;2023-03-04T10:31:35;99820.22;;;11.31;66.72
44839;BME280;30576;42.098;24.876;2023-03-04T10:34:04;99813.25;;;11.26;68.12
44839;BME280;30576;42.098;24.876;2023-03-04T10:39:00;99803.75;;;11.15;68.65
44839;BME280;30576;42.098;24.876;2023-03-04T10:41:27;99801.03;;;10.60;68.88
44839;BME280;30576;42.098;24.876;2023-03-04T10:46:24;99802.25;;;10.33;70.91
44839;BME280;30576;42.098;24.876;2023-03-04T10:48:50;99800.88;;;10.71;70.47
44839;BME280;30576;42.098;24.876;2023-03-04T10:51:20;99791.69;;;10.97;71.35
44839;BME280;30576;42.098;24.876;2023-03-04T10:53:46;99796.19;;;10.91;70.63
44839;BME280;30576;42.098;24.876;2023-03-04T11:01:54;99783.47;;;11.17;71.12
44839;BME280;30576;42.098;24.876;2023-03-04T11:04:22;99774.78;;;11.10;70.96
44839;BME280;30576;42.098;24.876;2023-03-04T11:06:49;99770.81;;;10.80;71.83
44839;BME280;30576;42.098;24.876;2023-03-04T11:09:33;99753.28;;;11.33;72.07
44839;BME280;30576;42.098;24.876;2023-03-04T11:11:58;99751.44;;;11.37;69.01
44839;BME280;30576;42.098;24.876;2023-03-04T11:14:25;99733.56;;;11.53;70.36
44839;BME280;30576;42.098;24.876;2023-03-04T11:16:55;99736.88;;;11.64;70.22
44839;BME280;30576;42.098;24.876;2023-03-04T11:19:21;99738.34;;;11.80;70.00
44839;BME280;30576;42.098;24.876;2023-03-04T11:21:47;99729.31;;;11.92;70.09
44839;BME280;30576;42.098;24.876;2023-03-04T11:24:14;99734.00;;;12.22;67.98
44839;BME280;30576;42.098;24.876;2023-03-04T11:26:47;99725.47;;;12.09;69.68
44839;BME280;30576;42.098;24.876;2023-03-04T11:29:19;99721.94;;;12.10;67.69
44839;BME280;30576;42.098;24.876;2023-03-04T11:31:49;99728.56;;;11.84;68.38
44839;BME280;30576;42.098;24.876;2023-03-04T11:37:05;99723.59;;;12.14;68.40
44839;BME280;30576;42.098;24.876;2023-03-04T11:39:36;99732.09;;;12.30;65.33
44839;BME280;30576;42.098;24.876;2023-03-04T11:44:57;99711.38;;;12.08;66.54
44839;BME280;30576;42.098;24.876;2023-03-04T11:47:37;99706.75;;;11.74;66.42
44839;BME280;30576;42.098;24.876;2023-03-04T11:50:08;99707.59;;;11.75;67.17
44839;BME280;30576;42.098;24.876;2023-03-04T12:07:39;99698.53;;;11.41;68.32
44839;BME280;30576;42.098;24.876;2023-03-04T12:42:05;99666.25;;;12.55;63.20
44839;BME280;30576;42.098;24.876;2023-03-04T12:45:13;99671.03;;;12.39;64.38
44839;BME280;30576;42.098;24.876;2023-03-04T12:50:03;99661.72;;;11.79;67.52
44839;BME280;30576;42.098;24.876;2023-03-04T12:53:08;99654.81;;;12.15;65.57
44839;BME280;30576;42.098;24.876;2023-03-04T12:55:25;99654.31;;;12.37;64.15
44839;BME280;30576;42.098;24.876;2023-03-04T12:57:54;99655.81;;;12.49;64.45
44839;BME280;30576;42.098;24.876;2023-03-04T13:00:26;99648.25;;;12.69;63.59
44839;BME280;30576;42.098;24.876;2023-03-04T13:02:58;99641.09;;;12.37;63.65
44839;BME280;30576;42.098;24.876;2023-03-04T13:10:26;99638.56;;;12.32;64.28
44839;BME280;30576;42.098;24.876;2023-03-04T13:12:52;99633.13;;;11.99;66.15
44839;BME280;30576;42.098;24.876;2023-03-04T13:17:50;99633.50;;;12.61;63.56
44839;BME280;30576;42.098;24.876;2023-03-04T13:23:45;99619.56;;;12.15;64.99
44839;BME280;30576;42.098;24.876;2023-03-04T13:38:23;99607.94;;;13.29;61.95
44839;BME280;30576;42.098;24.876;2023-03-04T13:56:33;99586.69;;;12.97;63.62
44839;BME280;30576;42.098;24.876;2023-03-04T14:04:10;99586.88;;;13.24;61.35
44839;BME280;30576;42.098;24.876;2023-03-04T14:06:40;99577.31;;;13.50;60.11
44839;BME280;30576;42.098;24.876;2023-03-04T14:09:11;99577.94;;;13.26;60.17
44839;BME280;30576;42.098;24.876;2023-03-04T14:11:40;99570.84;;;13.29;60.47
44839;BME280;30576;42.098;24.876;2023-03-04T14:14:09;99565.34;;;13.03;61.30
44839;BME280;30576;42.098;24.876;2023-03-04T14:16:37;99566.31;;;13.01;61.29
44839;BME280;30576;42.098;24.876;2023-03-04T14:19:04;99574.84;;;13.11;61.12
44839;BME280;30576;42.098;24.876;2023-03-04T14:21:31;99560.72;;;13.12;61.03
44839;BME280;30576;42.098;24.876;2023-03-04T14:24:03;99558.50;;;12.96;61.44
44839;BME280;30576;42.098;24.876;2023-03-04T14:26:29;99563.31;;;13.13;60.50
44839;BME280;30576;42.098;24.876;2023-03-04T14:28:55;99548.06;;;12.90;61.01
44839;BME280;30576;42.098;24.876;2023-03-04T14:31:24;99552.13;;;13.02;61.03
44839;BME280;30576;42.098;24.876;2023-03-04T14:33:52;99553.66;;;13.11;60.53
44839;BME280;30576;42.098;24.876;2023-03-04T14:36:23;99548.88;;;13.23;60.86
44839;BME280;30576;42.098;24.876;2023-03-04T14:38:53;99547.03;;;13.27;59.81
44839;BME280;30576;42.098;24.876;2023-03-04T14:41:40;99538.97;;;13.33;60.13
44839;BME280;30576;42.098;24.876;2023-03-04T14:44:19;99539.28;;;13.21;60.98
44839;BME280;30576;42.098;24.876;2023-03-04T14:46:49;99537.06;;;13.37;60.07
44839;BME280;30576;42.098;24.876;2023-03-04T14:49:15;99533.75;;;13.29;60.27
44839;BME280;30576;42.098;24.876;2023-03-04T14:51:42;99535.91;;;13.14;60.58
44839;BME280;30576;42.098;24.876;2023-03-04T14:56:53;99528.94;;;13.12;60.91
44839;BME280;30576;42.098;24.876;2023-03-04T14:59:28;99522.84;;;13.08;61.35
44839;BME280;30576;42.098;24.876;2023-03-04T15:02:06;99524.81;;;13.01;62.24
44839;BME280;30576;42.098;24.876;2023-03-04T15:04:32;99523.91;;;13.02;61.22
44839;BME280;30576;42.098;24.876;2023-03-04T15:06:58;99518.72;;;12.98;61.36